createdAt,value
2019-05-21T00:01:33.456Z,15.20
2019-05-21T00:04:03.913Z,15.20
2019-05-21T00:06:34.275Z,15.20
2019-05-21T00:09:05.266Z,15.20
2019-05-21T00:11:35.719Z,15.20
2019-05-21T00:14:06.137Z,15.20
2019-05-21T00:16:36.501Z,15.10
2019-05-21T00:19:06.854Z,15.10
2019-05-21T00:21:37.243Z,15.00
2019-05-21T00:24:07.601Z,15.00
2019-05-21T00:26:37.958Z,15.00
2019-05-21T00:29:44.064Z,14.90
2019-05-21T00:32:49.925Z,14.90
2019-05-21T00:35:56.236Z,14.90
2019-05-21T00:39:02.300Z,14.90
2019-05-21T00:42:01.662Z,14.90
2019-05-21T00:44:35.942Z,14.90
2019-05-21T00:47:07.447Z,14.80
2019-05-21T00:49:37.929Z,14.80
2019-05-21T00:52:09.368Z,14.80
2019-05-21T00:54:40.221Z,14.80
2019-05-21T00:57:10.771Z,14.80
2019-05-21T00:59:41.513Z,14.80
2019-05-21T01:02:11.954Z,14.80
2019-05-21T01:04:42.323Z,14.70
2019-05-21T01:07:12.654Z,14.70
2019-05-21T01:09:43.372Z,14.70
2019-05-21T01:12:13.733Z,14.70
2019-05-21T01:14:44.163Z,14.70
2019-05-21T01:17:14.617Z,14.70
2019-05-21T01:19:44.953Z,14.70
2019-05-21T01:22:15.330Z,14.60
2019-05-21T01:24:45.799Z,14.60
2019-05-21T01:27:17.307Z,14.60
2019-05-21T01:29:47.716Z,14.60
2019-05-21T01:32:18.098Z,14.60
2019-05-21T01:34:48.544Z,14.60
2019-05-21T01:37:18.904Z,14.50
2019-05-21T01:39:49.322Z,14.50
2019-05-21T01:42:19.704Z,14.50
2019-05-21T01:44:50.136Z,14.50
2019-05-21T01:47:20.561Z,14.50
2019-05-21T01:49:50.925Z,14.40
2019-05-21T01:52:21.409Z,14.40
2019-05-21T01:54:51.798Z,14.40
2019-05-21T01:57:22.342Z,14.40
2019-05-21T01:59:52.854Z,14.40
2019-05-21T02:02:23.281Z,14.40
2019-05-21T02:04:54.673Z,14.40
2019-05-21T02:07:25.064Z,14.40
2019-05-21T02:09:58.190Z,14.40
2019-05-21T02:12:29.012Z,14.30
2019-05-21T02:14:59.382Z,14.40
2019-05-21T02:17:30.832Z,14.40
2019-05-21T02:20:01.557Z,14.40
2019-05-21T02:22:33.026Z,14.30
2019-05-21T02:25:03.368Z,14.30
2019-05-21T02:27:34.810Z,14.30
2019-05-21T02:30:07.058Z,14.30
2019-05-21T02:32:39.050Z,14.20
2019-05-21T02:35:09.519Z,14.20
2019-05-21T02:37:39.966Z,14.20
2019-05-21T02:40:10.847Z,14.20
2019-05-21T02:42:41.288Z,14.20
2019-05-21T02:45:12.098Z,14.20
2019-05-21T02:47:42.631Z,14.20
2019-05-21T02:50:13.955Z,14.20
2019-05-21T02:52:44.469Z,14.10
2019-05-21T02:55:15.244Z,14.10
2019-05-21T02:57:45.691Z,14.10
2019-05-21T03:00:50.951Z,14.10
2019-05-21T03:03:24.238Z,14.10
2019-05-21T03:06:12.339Z,14.10
2019-05-21T03:08:26.701Z,14.10
2019-05-21T03:10:57.031Z,14.10
2019-05-21T03:13:27.453Z,14.00
2019-05-21T03:15:57.819Z,14.10
2019-05-21T03:18:28.187Z,14.00
2019-05-21T03:20:58.614Z,14.00
2019-05-21T03:23:29.125Z,14.00
2019-05-21T03:25:59.493Z,14.00
2019-05-21T03:28:29.923Z,14.00
2019-05-21T03:31:00.348Z,14.00
2019-05-21T03:33:30.772Z,14.00
2019-05-21T03:36:01.159Z,14.00
2019-05-21T03:38:32.672Z,14.00
2019-05-21T03:41:03.122Z,14.00
2019-05-21T03:43:33.573Z,14.00
2019-05-21T03:46:04.179Z,14.00
2019-05-21T03:48:34.606Z,14.00
2019-05-21T03:51:04.940Z,14.00
2019-05-21T03:53:35.354Z,13.90
2019-05-21T03:56:05.728Z,14.00
2019-05-21T03:58:36.090Z,14.00
2019-05-21T04:01:06.444Z,14.00
2019-05-21T04:03:36.821Z,14.00
2019-05-21T04:06:07.233Z,13.90
2019-05-21T04:08:37.602Z,13.90
2019-05-21T04:11:07.954Z,13.90
2019-05-21T04:13:38.492Z,13.80
2019-05-21T04:16:36.701Z,13.80
2019-05-21T04:19:11.073Z,13.70
2019-05-21T04:21:41.647Z,13.70
2019-05-21T04:24:12.395Z,13.70
2019-05-21T04:26:42.772Z,13.60
2019-05-21T04:29:13.214Z,13.60
2019-05-21T04:31:43.652Z,13.60
2019-05-21T04:34:14.225Z,13.70
2019-05-21T04:36:44.580Z,13.70
2019-05-21T04:39:15.243Z,13.70
2019-05-21T04:41:45.748Z,13.70
2019-05-21T04:44:16.121Z,13.60
2019-05-21T04:46:46.589Z,13.60
2019-05-21T04:49:17.060Z,13.60
2019-05-21T04:51:47.410Z,13.60
2019-05-21T04:54:18.092Z,13.60
2019-05-21T04:56:48.697Z,13.60
2019-05-21T04:59:19.269Z,13.60
2019-05-21T05:01:49.666Z,13.60
2019-05-21T05:04:21.652Z,13.60
2019-05-21T05:06:52.354Z,13.60
2019-05-21T05:09:22.921Z,13.60
2019-05-21T05:11:53.270Z,13.50
2019-05-21T05:14:23.641Z,13.50
2019-05-21T05:16:54.102Z,13.40
2019-05-21T05:19:24.484Z,13.40
2019-05-21T05:21:54.833Z,13.40
2019-05-21T05:24:25.285Z,13.40
2019-05-21T05:26:55.642Z,13.50
2019-05-21T05:29:26.122Z,13.60
2019-05-21T05:31:56.459Z,13.50
2019-05-21T05:34:26.862Z,13.50
2019-05-21T05:36:57.208Z,13.50
2019-05-21T05:39:27.628Z,13.50
2019-05-21T05:41:58.090Z,13.50
2019-05-21T05:44:28.519Z,13.50
2019-05-21T05:46:58.874Z,13.60
2019-05-21T05:49:34.415Z,13.60
2019-05-21T05:52:05.172Z,13.70
2019-05-21T05:54:35.638Z,13.70
2019-05-21T05:57:06.167Z,13.70
2019-05-21T05:59:36.722Z,13.70
2019-05-21T06:02:07.168Z,13.80
2019-05-21T06:04:37.575Z,13.80
2019-05-21T06:07:07.947Z,13.80
2019-05-21T06:09:38.334Z,13.90
2019-05-21T06:12:08.804Z,14.00
2019-05-21T06:14:39.183Z,14.00
2019-05-21T06:17:10.609Z,14.10
2019-05-21T06:19:40.970Z,14.20
2019-05-21T06:22:11.431Z,14.20
2019-05-21T06:24:41.848Z,14.30
2019-05-21T06:27:12.199Z,14.30
2019-05-21T06:29:42.601Z,14.50
2019-05-21T06:32:13.008Z,14.50
2019-05-21T06:34:43.393Z,14.60
2019-05-21T06:37:13.806Z,14.80
2019-05-21T06:39:44.170Z,14.90
2019-05-21T06:42:14.628Z,15.00
2019-05-21T06:44:45.006Z,15.10
2019-05-21T06:47:15.334Z,15.20
2019-05-21T06:49:45.704Z,15.30
2019-05-21T06:52:16.066Z,15.40
2019-05-21T06:54:46.441Z,15.40
2019-05-21T06:57:16.830Z,15.50
2019-05-21T06:59:47.361Z,15.70
2019-05-21T07:02:17.731Z,15.80
2019-05-21T07:04:48.202Z,15.80
2019-05-21T07:07:18.791Z,15.90
2019-05-21T07:09:49.321Z,16.00
2019-05-21T07:12:19.688Z,16.10
2019-05-21T07:14:50.054Z,16.20
2019-05-21T07:17:20.405Z,16.30
2019-05-21T07:19:50.756Z,16.40
2019-05-21T07:22:21.154Z,16.40
2019-05-21T07:24:51.526Z,16.50
2019-05-21T07:27:21.867Z,16.60
2019-05-21T07:29:52.286Z,16.70
2019-05-21T07:32:22.686Z,16.80
2019-05-21T07:34:53.076Z,16.90
2019-05-21T07:37:23.490Z,17.00
2019-05-21T07:39:53.866Z,17.10
2019-05-21T07:42:24.223Z,17.20
2019-05-21T07:44:54.673Z,17.30
2019-05-21T07:47:25.020Z,17.40
2019-05-21T07:49:55.437Z,17.50
2019-05-21T07:52:25.879Z,17.50
2019-05-21T07:54:56.278Z,17.60
2019-05-21T07:57:26.711Z,17.70
2019-05-21T07:59:57.065Z,17.80
2019-05-21T08:02:27.546Z,17.90
2019-05-21T08:04:58.077Z,18.00
2019-05-21T08:07:28.510Z,18.00
2019-05-21T08:09:58.966Z,18.00
2019-05-21T08:12:38.982Z,17.90
2019-05-21T08:15:01.701Z,17.90
2019-05-21T08:17:33.346Z,17.80
2019-05-21T08:20:09.370Z,17.70
2019-05-21T08:22:36.162Z,17.70
2019-05-21T08:25:07.234Z,17.60
2019-05-21T08:27:38.757Z,17.50
2019-05-21T08:30:09.447Z,17.50
2019-05-21T08:32:39.991Z,17.40
2019-05-21T08:35:11.191Z,17.40
2019-05-21T08:37:41.642Z,17.30
2019-05-21T08:40:13.203Z,17.30
2019-05-21T08:42:43.552Z,17.20
2019-05-21T08:45:14.254Z,17.20
2019-05-21T08:47:44.776Z,17.20
2019-05-21T08:50:15.284Z,17.20
2019-05-21T08:52:45.637Z,17.30
2019-05-21T08:55:16.239Z,17.30
2019-05-21T08:58:04.998Z,17.30
2019-05-21T09:00:21.074Z,17.30
2019-05-21T09:02:51.649Z,17.30
2019-05-21T09:05:22.182Z,17.30
2019-05-21T09:07:54.069Z,17.20
2019-05-21T09:10:24.766Z,17.20
2019-05-21T09:12:55.155Z,17.10
2019-05-21T09:15:25.787Z,17.00
2019-05-21T09:17:56.112Z,16.80
2019-05-21T09:20:26.619Z,16.70
2019-05-21T09:22:56.991Z,16.60
2019-05-21T09:25:27.332Z,16.50
2019-05-21T09:27:57.794Z,16.40
2019-05-21T09:30:28.170Z,16.30
2019-05-21T09:32:58.513Z,16.30
2019-05-21T09:35:28.959Z,16.30
2019-05-21T09:37:59.459Z,16.30
2019-05-21T09:40:30.638Z,16.20
2019-05-21T09:43:01.005Z,16.20
2019-05-21T09:45:31.374Z,16.20
2019-05-21T09:48:01.793Z,16.20
2019-05-21T09:50:32.159Z,16.20
2019-05-21T09:53:02.610Z,16.20
2019-05-21T09:55:33.893Z,16.20
2019-05-21T09:58:23.307Z,16.20
2019-05-21T10:01:18.470Z,16.30
2019-05-21T10:03:54.487Z,16.30
2019-05-21T10:06:24.941Z,16.30
2019-05-21T10:08:55.471Z,16.40
2019-05-21T10:11:25.933Z,16.30
2019-05-21T10:13:56.281Z,16.40
2019-05-21T10:16:26.809Z,16.30
2019-05-21T10:18:57.162Z,16.30
2019-05-21T10:21:27.698Z,16.30
2019-05-21T10:23:58.197Z,16.30
2019-05-21T10:26:28.658Z,16.40
2019-05-21T10:28:59.044Z,16.40
2019-05-21T10:31:29.610Z,16.50
2019-05-21T10:34:00.024Z,16.50
2019-05-21T10:36:30.483Z,16.50
2019-05-21T10:39:00.827Z,16.60
2019-05-21T10:41:32.904Z,16.60
2019-05-21T10:44:03.342Z,16.60
2019-05-21T10:46:33.731Z,16.60
2019-05-21T10:49:04.277Z,16.60
2019-05-21T10:51:34.783Z,16.60
2019-05-21T10:54:06.302Z,16.60
2019-05-21T10:56:47.303Z,16.60
2019-05-21T10:59:08.758Z,16.60
2019-05-21T11:02:10.399Z,16.60
2019-05-21T11:04:45.453Z,16.60
2019-05-21T11:07:17.902Z,16.70
2019-05-21T11:09:55.555Z,16.70
2019-05-21T11:12:26.299Z,16.90
2019-05-21T11:14:56.731Z,16.90
2019-05-21T11:17:27.131Z,17.20
2019-05-21T11:19:57.588Z,17.30
2019-05-21T11:22:28.028Z,17.50
2019-05-21T11:24:58.456Z,17.50
2019-05-21T11:27:28.996Z,17.60
2019-05-21T11:29:59.382Z,17.60
2019-05-21T11:32:29.790Z,17.60
2019-05-21T11:35:00.143Z,17.60
2019-05-21T11:37:30.567Z,17.60
2019-05-21T11:40:00.969Z,17.70
2019-05-21T11:42:31.485Z,17.70
2019-05-21T11:45:01.859Z,17.70
2019-05-21T11:47:32.359Z,17.60
2019-05-21T11:50:02.785Z,17.60
2019-05-21T11:52:33.313Z,17.60
2019-05-21T11:55:03.854Z,17.50
2019-05-21T11:57:34.368Z,17.50
2019-05-21T12:00:05.889Z,17.50
2019-05-21T12:02:38.516Z,17.60
2019-05-21T12:05:09.434Z,17.60
2019-05-21T12:07:39.934Z,17.60
2019-05-21T12:10:10.505Z,17.70
2019-05-21T12:12:40.966Z,17.70
2019-05-21T12:15:11.437Z,17.80
2019-05-21T12:17:41.939Z,17.80
2019-05-21T12:20:13.114Z,17.90
2019-05-21T12:22:43.484Z,17.90
2019-05-21T12:25:14.172Z,17.90
2019-05-21T12:27:45.614Z,18.00
2019-05-21T12:30:16.138Z,18.00
2019-05-21T12:32:46.583Z,18.00
2019-05-21T12:35:17.102Z,18.10
2019-05-21T12:37:47.604Z,18.00
2019-05-21T12:40:18.969Z,18.00
2019-05-21T12:42:49.416Z,18.00
2019-05-21T12:45:20.183Z,18.00
2019-05-21T12:47:50.943Z,17.90
2019-05-21T12:50:23.121Z,18.00
2019-05-21T12:52:53.495Z,17.90
2019-05-21T12:55:24.020Z,18.00
2019-05-21T12:57:54.596Z,18.00
2019-05-21T13:00:30.736Z,18.10
2019-05-21T13:03:01.181Z,18.20
2019-05-21T13:05:32.651Z,18.20
2019-05-21T13:08:03.264Z,18.20
2019-05-21T13:10:34.773Z,18.30
2019-05-21T13:13:05.384Z,18.30
2019-05-21T13:15:35.981Z,18.20
2019-05-21T13:18:06.421Z,18.20
2019-05-21T13:20:36.873Z,18.20
2019-05-21T13:23:07.659Z,18.20
2019-05-21T13:25:38.262Z,18.20
2019-05-21T13:28:09.063Z,18.20
2019-05-21T13:30:39.464Z,18.20
2019-05-21T13:33:10.038Z,18.20
2019-05-21T13:35:40.812Z,18.10
2019-05-21T13:38:13.492Z,18.10
2019-05-21T13:40:44.241Z,18.10
2019-05-21T13:43:14.817Z,18.10
2019-05-21T13:45:45.323Z,18.10
2019-05-21T13:48:15.977Z,18.10
2019-05-21T13:50:46.454Z,18.10
2019-05-21T13:53:16.989Z,18.10
2019-05-21T13:55:48.492Z,18.20
2019-05-21T13:58:19.026Z,18.20
2019-05-21T14:00:53.544Z,18.10
2019-05-21T14:03:24.142Z,18.00
2019-05-21T14:05:54.560Z,18.00
2019-05-21T14:08:24.995Z,17.90
2019-05-21T14:10:55.580Z,17.90
2019-05-21T14:13:26.091Z,17.90
2019-05-21T14:15:56.472Z,17.90
2019-05-21T14:18:27.014Z,17.90
2019-05-21T14:20:57.582Z,17.80
2019-05-21T14:23:28.015Z,17.80
2019-05-21T14:25:58.525Z,17.80
2019-05-21T14:28:29.058Z,17.70
2019-05-21T14:30:59.422Z,17.70
2019-05-21T14:33:29.896Z,17.70
2019-05-21T14:36:00.357Z,17.60
2019-05-21T14:38:30.808Z,17.60
2019-05-21T14:41:01.293Z,17.50
2019-05-21T14:43:31.709Z,17.40
2019-05-21T14:46:02.194Z,17.40
2019-05-21T14:48:32.573Z,17.30
2019-05-21T14:51:02.915Z,17.30
2019-05-21T14:53:33.340Z,17.30
2019-05-21T14:56:03.777Z,17.20
2019-05-21T14:58:34.341Z,17.20
2019-05-21T15:01:04.964Z,17.20
2019-05-21T15:03:35.428Z,17.10
2019-05-21T15:06:05.825Z,17.10
2019-05-21T15:08:36.395Z,17.00
2019-05-21T15:11:06.814Z,17.00
2019-05-21T15:13:37.329Z,17.00
2019-05-21T15:16:07.738Z,17.00
2019-05-21T15:18:38.243Z,17.00
2019-05-21T15:21:13.969Z,16.90
2019-05-21T15:23:45.318Z,16.90
2019-05-21T15:26:16.749Z,16.80
2019-05-21T15:28:47.312Z,16.80
2019-05-21T15:31:17.770Z,16.80
2019-05-21T15:33:48.363Z,16.80
2019-05-21T15:36:19.326Z,16.90
2019-05-21T15:38:51.195Z,16.80
2019-05-21T15:41:21.998Z,16.80
2019-05-21T15:43:52.436Z,16.80
2019-05-21T15:46:23.034Z,16.80
2019-05-21T15:48:54.468Z,16.80
2019-05-21T15:51:24.987Z,16.70
2019-05-21T15:53:55.432Z,16.60
2019-05-21T15:56:25.913Z,16.60
2019-05-21T15:58:56.510Z,16.60
2019-05-21T16:01:26.907Z,16.60
2019-05-21T16:03:57.342Z,16.60
2019-05-21T16:06:27.890Z,16.70
2019-05-21T16:08:58.270Z,16.70
2019-05-21T16:11:29.384Z,16.80
2019-05-21T16:14:00.014Z,16.80
2019-05-21T16:16:30.579Z,16.80
2019-05-21T16:19:01.118Z,16.80
2019-05-21T16:21:31.574Z,16.80
2019-05-21T16:24:02.117Z,16.70
2019-05-21T16:26:32.525Z,16.70
2019-05-21T16:29:02.880Z,16.70
2019-05-21T16:31:33.458Z,16.70
2019-05-21T16:34:03.914Z,16.70
2019-05-21T16:36:34.443Z,16.70
2019-05-21T16:39:07.161Z,16.60
2019-05-21T16:41:44.834Z,16.60
2019-05-21T16:44:10.230Z,16.60
2019-05-21T16:46:42.643Z,16.50
2019-05-21T16:49:12.927Z,16.40
2019-05-21T16:51:43.715Z,16.40
2019-05-21T16:54:15.581Z,16.40
2019-05-21T16:56:47.062Z,16.40
2019-05-21T16:59:17.682Z,16.40
2019-05-21T17:01:48.166Z,16.30
2019-05-21T17:04:19.188Z,16.30
2019-05-21T17:06:49.674Z,16.30
2019-05-21T17:09:20.382Z,16.20
2019-05-21T17:11:59.545Z,16.20
2019-05-21T17:14:23.126Z,16.20
2019-05-21T17:16:53.691Z,16.20
2019-05-21T17:19:24.314Z,16.20
2019-05-21T17:21:54.843Z,16.20
2019-05-21T17:24:25.420Z,16.20
2019-05-21T17:26:55.905Z,16.20
2019-05-21T17:29:26.273Z,16.20
2019-05-21T17:31:56.714Z,16.10
2019-05-21T17:34:27.561Z,16.10
2019-05-21T17:36:58.265Z,16.00
2019-05-21T17:39:28.806Z,16.00
2019-05-21T17:42:14.359Z,16.00
2019-05-21T17:44:31.506Z,15.90
2019-05-21T17:47:02.078Z,15.90
2019-05-21T17:49:32.658Z,15.90
2019-05-21T17:52:03.064Z,15.90
2019-05-21T17:54:34.406Z,15.90
2019-05-21T17:57:05.273Z,15.80
2019-05-21T17:59:35.749Z,15.80
2019-05-21T18:02:08.212Z,15.80
2019-05-21T18:04:39.190Z,15.70
2019-05-21T18:07:12.185Z,15.70
2019-05-21T18:09:43.064Z,15.70
2019-05-21T18:12:30.848Z,15.70
2019-05-21T18:14:47.550Z,15.70
2019-05-21T18:17:20.306Z,15.60
2019-05-21T18:19:53.433Z,15.60
2019-05-21T18:22:24.579Z,15.60
2019-05-21T18:24:56.219Z,15.60
2019-05-21T18:27:27.929Z,15.60
2019-05-21T18:29:58.556Z,15.60
2019-05-21T18:32:29.343Z,15.60
2019-05-21T18:34:59.855Z,15.50
2019-05-21T18:37:30.606Z,15.50
2019-05-21T18:40:01.086Z,15.50
2019-05-21T18:42:32.934Z,15.50
2019-05-21T18:45:03.602Z,15.40
2019-05-21T18:47:34.920Z,15.40
2019-05-21T18:50:05.822Z,15.40
2019-05-21T18:52:36.531Z,15.40
2019-05-21T18:55:07.262Z,15.40
2019-05-21T18:57:37.794Z,15.40
2019-05-21T19:00:08.796Z,15.40
2019-05-21T19:02:39.404Z,15.40
2019-05-21T19:05:10.789Z,15.40
2019-05-21T19:07:41.580Z,15.40
2019-05-21T19:10:12.865Z,15.50
2019-05-21T19:12:43.535Z,15.50
2019-05-21T19:15:14.440Z,15.40
2019-05-21T19:17:44.920Z,15.40
2019-05-21T19:20:15.543Z,15.40
2019-05-21T19:22:46.191Z,15.40
2019-05-21T19:25:17.815Z,15.40
2019-05-21T19:27:48.236Z,15.40
2019-05-21T19:30:19.170Z,15.40
2019-05-21T19:32:49.778Z,15.50
2019-05-21T19:35:20.197Z,15.40
2019-05-21T19:37:50.722Z,15.40
2019-05-21T19:40:21.683Z,15.40
2019-05-21T19:42:55.311Z,15.40
2019-05-21T19:45:24.621Z,15.50
2019-05-21T19:47:55.507Z,15.50
2019-05-21T19:50:25.951Z,15.40
2019-05-21T19:52:56.587Z,15.40
2019-05-21T19:55:29.002Z,15.40
2019-05-21T19:57:59.670Z,15.40
2019-05-21T20:00:31.732Z,15.40
2019-05-21T20:03:04.061Z,15.40
2019-05-21T20:05:35.771Z,15.40
2019-05-21T20:08:06.456Z,15.40
2019-05-21T20:10:37.765Z,15.30
2019-05-21T20:13:08.638Z,15.30
2019-05-21T20:15:39.225Z,15.30
2019-05-21T20:18:10.361Z,15.30
2019-05-21T20:20:41.835Z,15.20
2019-05-21T20:23:13.679Z,15.20
2019-05-21T20:25:55.984Z,15.20
2019-05-21T20:28:17.259Z,15.20
2019-05-21T20:30:48.845Z,15.10
2019-05-21T20:33:19.847Z,15.10
2019-05-21T20:35:53.273Z,15.10
2019-05-21T20:38:25.484Z,15.10
2019-05-21T20:40:56.269Z,15.10
2019-05-21T20:43:27.075Z,15.10
2019-05-21T20:45:57.980Z,15.10
2019-05-21T20:48:32.110Z,15.10
2019-05-21T20:51:04.024Z,15.10
2019-05-21T20:53:34.750Z,15.00
2019-05-21T20:56:07.050Z,15.00
2019-05-21T20:58:38.216Z,15.00
2019-05-21T21:01:08.797Z,15.00
2019-05-21T21:03:40.476Z,15.00
2019-05-21T21:06:11.538Z,15.00
2019-05-21T21:08:42.614Z,15.00
2019-05-21T21:11:14.163Z,15.00
2019-05-21T21:13:46.292Z,14.90
2019-05-21T21:16:16.998Z,14.90
2019-05-21T21:18:48.595Z,14.90
2019-05-21T21:21:19.204Z,14.90
2019-05-21T21:23:51.452Z,14.90
2019-05-21T21:26:23.222Z,15.00
2019-05-21T21:28:53.772Z,14.90
2019-05-21T21:31:24.281Z,14.90
2019-05-21T21:33:54.914Z,15.00
2019-05-21T21:36:25.469Z,15.00
2019-05-21T21:38:56.010Z,14.90
2019-05-21T21:41:26.612Z,14.90
2019-05-21T21:43:57.423Z,14.90
2019-05-21T21:46:27.799Z,14.90
2019-05-21T21:48:58.845Z,14.90
2019-05-21T21:51:29.416Z,14.90
2019-05-21T21:53:59.916Z,14.90
2019-05-21T21:56:30.522Z,14.90
2019-05-21T21:59:00.956Z,14.80
2019-05-21T22:02:05.522Z,14.80
2019-05-21T22:04:36.468Z,14.90
2019-05-21T22:07:08.027Z,14.90
2019-05-21T22:09:41.196Z,14.90
2019-05-21T22:12:16.861Z,14.80
2019-05-21T22:14:52.503Z,14.80
2019-05-21T22:17:23.610Z,14.80
2019-05-21T22:19:54.087Z,14.80
2019-05-21T22:22:24.852Z,14.70
2019-05-21T22:24:55.653Z,14.70
2019-05-21T22:27:26.422Z,14.70
2019-05-21T22:29:56.832Z,14.70
2019-05-21T22:32:27.967Z,14.60
2019-05-21T22:35:00.758Z,14.60
2019-05-21T22:37:31.525Z,14.60
2019-05-21T22:40:03.769Z,14.60
2019-05-21T22:42:34.435Z,14.50
2019-05-21T22:45:08.614Z,14.50
2019-05-21T22:47:38.621Z,14.50
2019-05-21T22:50:09.719Z,14.50
2019-05-21T22:52:40.109Z,14.50
2019-05-21T22:55:10.497Z,14.40
2019-05-21T22:57:40.996Z,14.40
2019-05-21T23:00:11.892Z,14.40
2019-05-21T23:02:43.491Z,14.40
2019-05-21T23:05:14.499Z,14.40
2019-05-21T23:07:46.651Z,14.40
2019-05-21T23:10:17.175Z,14.40
2019-05-21T23:12:47.739Z,14.40
2019-05-21T23:15:24.884Z,14.30
2019-05-21T23:18:01.116Z,14.40
2019-05-21T23:20:36.280Z,14.30
2019-05-21T23:23:07.734Z,14.30
2019-05-21T23:25:39.520Z,14.30
2019-05-21T23:28:10.155Z,14.30
2019-05-21T23:30:40.529Z,14.30
2019-05-21T23:33:12.933Z,14.30
2019-05-21T23:35:43.774Z,14.30
2019-05-21T23:38:14.297Z,14.30
2019-05-21T23:40:44.695Z,14.30
2019-05-21T23:43:15.273Z,14.40
2019-05-21T23:45:46.058Z,14.40
2019-05-21T23:48:17.449Z,14.40
2019-05-21T23:50:47.911Z,14.40
2019-05-21T23:53:18.428Z,14.40
2019-05-21T23:55:48.984Z,14.40
2019-05-21T23:58:19.821Z,14.40
